Cervena, Czech Republic

1:14 PM CET on December 22, 2014 (GMT +0100)
ISMRYMAR2 | Change Station
CLOSE
Current Station
Personal Weather Station
Location: Rymarov, SM
Elevation: 2044 ft
Nearby Weather Stations

Elev 2044 ft 49.93 °N, 17.26 °E | Updated 4 seconds ago

Rain
Rain
38.2 °F
Feels Like 26 °F
N
27.6
Wind Variable Wind from West
Gusts 27.6 mph

Today
High -- | Low -- °F
--% Chance of Precip.
Yesterday
High -- | Low -- °F
Precip. -- in
7:45 AM 3:51 PM
New Moon, 0% visible
Pressure 30.01 in
Visibility 6.2 miles
Clouds Overcast 2300 ft
Windchill 26 °F
Dew Point 37 °F
Humidity 95%
Rainfall 0.09 in
Snow Depth Not available.
UV 0.0 out of 12
Pollen Not available.
Air Quality Not available.
Flu Activity Not available.
METAR LKMT 221200Z 22018KT 9999 OVC023 06/02 Q1016 NOSIG

More Conditions Fewer Conditions

Pressure 30.01 in
Visibility 6.2 miles
Clouds Overcast 2300 ft
Windchill 26 °F
Dew Point 37 °F
Humidity 95%
Rainfall 0.09 in
Snow Depth Not available.
UV 0.0 out of 12
Pollen Not available.
Air Quality Not available.
Flu Activity Not available.
METAR LKMT 221200Z 22018KT 9999 OVC023 06/02 Q1016 NOSIG

More Conditions Fewer Conditions

10-Day Weather Forecast

Almanac

Astronomy

Dec. 22, 2014 Rise Set
Actual Time
Civil Twilight
Nautical Twilight
Astronomical Twilight
Moon
Length of Visible Light
Length of Day
Tomorrow will be .
, % of the Moon is Illuminated

Today's Extremes

Country Highs Country Lows

Community

WunderPhotos

Upload Photos

1,779,593 photos uploaded!

WunderBlogs® & News

Nearby

Air Quality

  Air Quality AQ Index Pollutant
Not available.

Snow Depth

Station Depth Elevation

Earthquake Activity

City Distance Mag. Time & Date
Minimum magnitude displayed is 2.5.

Coastal Water Temperatures

Place Temperature

Nearby Weather Stations